createdAt,value
2022-09-12T00:03:01.567Z,19.1
2022-09-12T00:08:01.511Z,21.8
2022-09-12T00:13:01.677Z,22.4
2022-09-12T00:18:01.517Z,21.2
2022-09-12T00:28:01.532Z,22.1
2022-09-12T00:33:01.719Z,20.5
2022-09-12T00:38:01.500Z,20.9
2022-09-12T00:43:01.966Z,23.1
2022-09-12T00:48:01.507Z,23.8
2022-09-12T00:53:01.548Z,23.6
2022-09-12T00:58:01.502Z,23.5
2022-09-12T01:03:01.475Z,23.3
2022-09-12T01:08:01.463Z,23.5
2022-09-12T01:13:01.507Z,24.3
2022-09-12T01:18:01.473Z,22.9
2022-09-12T01:23:01.440Z,24.4
2022-09-12T01:28:01.447Z,25.7
2022-09-12T01:33:01.458Z,24.1
2022-09-12T01:38:01.438Z,22.4
2022-09-12T01:43:01.406Z,21.6
2022-09-12T01:48:01.404Z,21.2
2022-09-12T01:53:01.609Z,20.6
2022-09-12T01:58:01.594Z,20.0
2022-09-12T02:03:01.546Z,20.8
2022-09-12T02:08:01.554Z,23.6
2022-09-12T02:13:01.559Z,24.7
2022-09-12T02:18:01.549Z,23.6
2022-09-12T02:23:01.729Z,24.1
2022-09-12T02:28:01.577Z,25.9
2022-09-12T02:33:01.606Z,24.3
2022-09-12T02:38:01.594Z,23.2
2022-09-12T02:44:01.666Z,23.8
2022-09-12T02:54:01.549Z,22.0
2022-09-12T02:59:01.525Z,22.5
2022-09-12T03:04:01.385Z,22.3
2022-09-12T03:09:01.541Z,22.6
2022-09-12T03:14:11.806Z,25.0
2022-09-12T03:19:01.428Z,24.9
2022-09-12T03:24:01.776Z,26.4
2022-09-12T03:29:01.523Z,26.2
2022-09-12T03:34:02.326Z,26.4
2022-09-12T03:39:01.525Z,26.6
2022-09-12T03:44:01.511Z,28.0
2022-09-12T03:49:01.511Z,27.3
2022-09-12T03:54:01.548Z,26.6
2022-09-12T03:59:01.510Z,25.3
2022-09-12T04:04:02.073Z,23.8
2022-09-12T04:09:01.613Z,24.6
2022-09-12T04:14:01.542Z,22.7
2022-09-12T04:19:01.519Z,25.2
2022-09-12T04:24:01.520Z,27.8
2022-09-12T04:29:01.673Z,28.3
2022-09-12T04:34:02.010Z,27.6
2022-09-12T04:39:01.504Z,29.8
2022-09-12T04:44:01.593Z,29.2
2022-09-12T04:49:01.508Z,26.7
2022-09-12T04:54:01.548Z,27.8
2022-09-12T04:59:01.507Z,27.7
2022-09-12T05:04:01.540Z,27.2
2022-09-12T05:09:01.526Z,26.6
2022-09-12T05:14:01.584Z,29.7
2022-09-12T05:19:01.575Z,27.9
2022-09-12T05:24:01.542Z,27.0
2022-09-12T05:29:02.998Z,25.3
2022-09-12T05:34:01.552Z,23.6
2022-09-12T05:39:01.545Z,24.2
2022-09-12T05:44:01.533Z,27.5
2022-09-12T05:49:01.637Z,31.4
2022-09-12T05:54:01.531Z,36.4
2022-09-12T05:59:01.621Z,39.6
2022-09-12T06:04:01.210Z,40.0
2022-09-12T06:09:03.516Z,39.5
2022-09-12T06:14:02.767Z,38.2
2022-09-12T06:19:01.516Z,36.8
2022-09-12T06:24:01.602Z,35.8
2022-09-12T06:29:01.548Z,34.8
2022-09-12T06:34:01.520Z,34.0
2022-09-12T06:39:01.516Z,34.7
2022-09-12T06:44:02.698Z,34.6
2022-09-12T06:49:01.553Z,36.0
2022-09-12T06:54:01.515Z,35.8
2022-09-12T06:59:01.585Z,36.5
2022-09-12T07:04:03.055Z,35.7
2022-09-12T07:14:01.428Z,35.2
2022-09-12T07:19:01.544Z,35.0
2022-09-12T07:24:02.090Z,34.7
2022-09-12T07:29:18.988Z,35.9
2022-09-12T07:34:04.372Z,34.0
2022-09-12T07:44:01.869Z,34.6
2022-09-12T07:49:01.941Z,35.0
2022-09-12T07:54:01.532Z,33.2
2022-09-12T07:59:01.516Z,32.4
2022-09-12T08:04:01.530Z,32.2
2022-09-12T08:09:01.512Z,31.2
2022-09-12T08:14:01.537Z,30.6
2022-09-12T08:19:01.527Z,30.2
2022-09-12T08:24:01.522Z,30.6
2022-09-12T08:29:01.559Z,30.2
2022-09-12T08:34:01.541Z,30.0
2022-09-12T08:39:04.110Z,28.5
2022-09-12T08:44:01.532Z,26.1
2022-09-12T08:49:03.123Z,25.7
2022-09-12T08:54:03.442Z,23.6
2022-09-12T08:59:01.989Z,21.0
2022-09-12T09:04:01.400Z,20.6
2022-09-12T09:09:01.547Z,19.8
2022-09-12T09:14:04.965Z,19.3
2022-09-12T09:19:01.525Z,19.7
2022-09-12T09:24:04.692Z,20.0
2022-09-12T09:29:05.014Z,18.1
2022-09-12T09:34:04.787Z,17.8
2022-09-12T09:39:17.188Z,16.6
2022-09-12T09:44:01.605Z,15.0
2022-09-12T09:54:01.513Z,14.4
2022-09-12T09:59:10.940Z,13.4
2022-09-12T10:04:01.952Z,12.5
2022-09-12T10:09:01.524Z,11.5
2022-09-12T10:14:01.903Z,9.1
2022-09-12T10:19:02.853Z,8.0
2022-09-12T10:29:01.515Z,7.0
2022-09-12T10:35:01.531Z,5.8
2022-09-12T10:45:01.912Z,5.4
2022-09-12T10:50:22.512Z,4.7
2022-09-12T10:55:01.816Z,4.6
2022-09-12T11:00:06.497Z,4.8
2022-09-12T11:05:08.972Z,4.6
2022-09-12T11:10:01.512Z,5.0
2022-09-12T11:15:17.196Z,4.8
2022-09-12T11:20:14.547Z,4.4
2022-09-12T11:25:01.418Z,4.7
2022-09-12T11:30:04.261Z,5.0
2022-09-12T11:35:01.435Z,4.5
2022-09-12T11:40:01.365Z,5.2
2022-09-12T11:45:04.576Z,5.6
2022-09-12T11:50:08.137Z,5.0
2022-09-12T11:55:01.480Z,4.8
2022-09-12T12:00:05.235Z,4.6
2022-09-12T12:05:14.586Z,3.4
2022-09-12T12:10:02.130Z,3.0
2022-09-12T12:15:02.040Z,3.2
2022-09-12T12:20:05.733Z,2.8
2022-09-12T12:25:01.549Z,2.9
2022-09-12T12:30:02.062Z,3.3
2022-09-12T12:35:17.111Z,3.6
2022-09-12T12:40:07.441Z,3.5
2022-09-12T12:45:17.382Z,3.8
2022-09-12T12:50:01.565Z,3.7
2022-09-12T12:55:03.055Z,3.1
2022-09-12T13:00:07.549Z,2.7
2022-09-12T13:05:01.424Z,2.4
2022-09-12T13:10:01.328Z,2.0
2022-09-12T13:15:03.548Z,2.2
2022-09-12T13:20:24.024Z,2.6
2022-09-12T13:25:01.360Z,2.8
2022-09-12T13:30:17.168Z,3.2
2022-09-12T13:45:16.880Z,3.2
2022-09-12T13:55:01.348Z,2.8
2022-09-12T14:00:05.558Z,3.0
2022-09-12T14:05:01.298Z,2.8
2022-09-12T14:15:01.949Z,3.0
2022-09-12T14:25:01.345Z,3.1
2022-09-12T14:30:16.670Z,3.2
2022-09-12T14:35:05.174Z,3.0
2022-09-12T14:40:01.381Z,2.6
2022-09-12T14:45:03.495Z,2.1
2022-09-12T14:50:01.462Z,1.9
2022-09-12T14:55:02.068Z,1.6
2022-09-12T15:15:12.663Z,2.0
2022-09-12T15:20:01.481Z,1.7
2022-09-12T15:25:01.395Z,2.0
2022-09-12T15:30:02.248Z,2.2
2022-09-12T15:35:01.616Z,2.1
2022-09-12T15:40:01.484Z,2.3
2022-09-12T15:45:18.780Z,2.4
2022-09-12T15:50:01.408Z,2.3
2022-09-12T15:55:01.430Z,2.2
2022-09-12T16:00:02.323Z,2.4
2022-09-12T16:05:01.420Z,2.8
2022-09-12T16:10:02.009Z,3.2
2022-09-12T16:15:01.992Z,3.4
2022-09-12T16:20:01.561Z,3.7
2022-09-12T16:30:02.567Z,3.2
2022-09-12T16:35:01.442Z,2.9
2022-09-12T16:40:01.438Z,3.0
2022-09-12T16:45:02.442Z,2.7
2022-09-12T16:50:01.447Z,2.9
2022-09-12T16:55:01.520Z,3.3
2022-09-12T17:00:02.476Z,3.6
2022-09-12T17:05:01.394Z,3.8
2022-09-12T17:10:01.396Z,3.5
2022-09-12T17:15:01.956Z,3.5
2022-09-12T17:20:01.410Z,3.9
2022-09-12T17:25:01.609Z,3.8
2022-09-12T17:30:01.681Z,4.0
2022-09-12T17:35:02.008Z,5.4
2022-09-12T17:40:02.630Z,6.2
2022-09-12T17:45:01.819Z,6.8
2022-09-12T17:50:31.166Z,7.7
2022-09-12T17:55:01.404Z,8.6
2022-09-12T18:00:02.510Z,9.0
2022-09-12T18:05:01.363Z,10.3
2022-09-12T18:10:01.279Z,11.1
2022-09-12T18:15:01.646Z,11.1
2022-09-12T18:20:02.023Z,12.9
2022-09-12T18:25:01.153Z,14.1
2022-09-12T18:30:21.347Z,14.9
2022-09-12T18:35:01.127Z,17.4
2022-09-12T18:40:01.433Z,18.9
2022-09-12T18:45:01.752Z,19.5
2022-09-12T18:50:01.455Z,19.4
2022-09-12T18:55:02.246Z,19.1
2022-09-12T19:00:02.743Z,17.1
2022-09-12T19:05:01.503Z,16.8
2022-09-12T19:10:01.466Z,14.4
2022-09-12T19:15:01.868Z,14.3
2022-09-12T19:20:01.451Z,13.2
2022-09-12T19:25:01.444Z,12.1
2022-09-12T19:30:02.183Z,10.9
2022-09-12T19:40:01.435Z,9.6
2022-09-12T19:45:01.832Z,8.9
2022-09-12T19:50:01.472Z,9.4
2022-09-12T19:55:01.440Z,10.5
2022-09-12T20:00:03.124Z,10.7
2022-09-12T20:05:02.023Z,10.8
2022-09-12T20:10:01.178Z,11.0
2022-09-12T20:15:02.214Z,10.8
2022-09-12T20:20:01.437Z,10.4
2022-09-12T20:25:01.435Z,10.1
2022-09-12T20:30:03.108Z,10.6
2022-09-12T20:35:01.432Z,11.8
2022-09-12T20:40:01.464Z,10.9
2022-09-12T20:45:02.722Z,11.5
2022-09-12T20:50:01.587Z,11.8
2022-09-12T20:55:01.716Z,12.1
2022-09-12T21:00:02.112Z,11.6
2022-09-12T21:05:02.470Z,12.5
2022-09-12T21:10:01.465Z,12.4
2022-09-12T21:15:02.045Z,13.1
2022-09-12T21:20:01.425Z,13.4
2022-09-12T21:30:02.443Z,14.1
2022-09-12T21:35:01.424Z,14.4
2022-09-12T21:40:02.788Z,14.8
2022-09-12T21:45:01.985Z,14.8
2022-09-12T21:50:01.449Z,15.8
2022-09-12T21:55:01.444Z,16.2
2022-09-12T22:00:03.923Z,16.2
2022-09-12T22:05:01.430Z,16.0
2022-09-12T22:10:01.487Z,16.6
2022-09-12T22:15:39.325Z,16.5
2022-09-12T22:20:01.430Z,15.8
2022-09-12T22:25:01.452Z,15.5
2022-09-12T22:30:02.011Z,15.0
2022-09-12T22:35:01.437Z,14.2
2022-09-12T22:40:01.506Z,14.3
2022-09-12T22:45:03.471Z,14.6
2022-09-12T22:55:01.584Z,15.6
2022-09-12T23:00:03.888Z,15.7
2022-09-12T23:05:01.436Z,14.2
2022-09-12T23:10:01.467Z,14.1
2022-09-12T23:15:02.376Z,14.1
2022-09-12T23:20:01.435Z,13.4
2022-09-12T23:25:01.432Z,12.8
2022-09-12T23:30:01.907Z,13.7
2022-09-12T23:35:01.476Z,14.0
2022-09-12T23:40:01.507Z,15.2
2022-09-12T23:45:02.044Z,15.8
2022-09-12T23:50:01.612Z,15.6
2022-09-12T23:55:01.564Z,15.0
